TimeCST,TemperatureF,Dew PointF,Humidity,Sea Level PressureIn,VisibilityMPH,Wind Direction,Wind SpeedMPH,Gust SpeedMPH,PrecipitationIn,Events,Conditions,WindDirDegrees,DateUTC
12:53 AM,-2.0,-15.0,54,30.66,10.0,NNW,8.1,-,N/A,,Clear,340,2013-01-24 06:53:00
1:53 AM,-2.9,-14.1,59,30.66,10.0,NNW,12.7,-,N/A,,Clear,340,2013-01-24 07:53:00
2:53 AM,-2.9,-14.1,59,30.70,10.0,NNW,10.4,-,N/A,,Clear,340,2013-01-24 08:53:00
3:53 AM,-2.9,-14.1,59,30.72,10.0,North,6.9,-,N/A,,Clear,350,2013-01-24 09:53:00
4:53 AM,-4.0,-14.1,62,30.74,10.0,North,5.8,-,N/A,,Clear,350,2013-01-24 10:53:00
5:53 AM,-4.0,-13.0,65,30.74,10.0,North,6.9,-,N/A,,Clear,350,2013-01-24 11:53:00
6:53 AM,-2.9,-13.0,62,30.75,10.0,North,3.5,-,N/A,,Clear,350,2013-01-24 12:53:00
7:53 AM,-2.9,-13.0,62,30.76,10.0,NNE,3.5,-,N/A,,Clear,30,2013-01-24 13:53:00
8:53 AM,-2.0,-11.9,63,30.77,10.0,Calm,Calm,-,N/A,,Clear,0,2013-01-24 14:53:00
9:53 AM,-0.0,-11.0,60,30.75,10.0,Calm,Calm,-,N/A,,Clear,0,2013-01-24 15:53:00
10:53 AM,1.0,-9.0,63,30.74,10.0,Calm,Calm,-,N/A,,Clear,0,2013-01-24 16:53:00
11:53 AM,3.9,-8.0,58,30.72,10.0,ESE,3.5,-,N/A,,Clear,110,2013-01-24 17:53:00
12:53 PM,5.0,-6.0,61,30.67,10.0,Variable,3.5,-,N/A,,Mostly Cloudy,0,2013-01-24 18:53:00
1:53 PM,6.1,-5.1,60,30.64,10.0,West,3.5,-,N/A,,Clear,280,2013-01-24 19:53:00
2:53 PM,8.1,-4.0,58,30.62,10.0,Calm,Calm,-,N/A,,Clear,0,2013-01-24 20:53:00
3:53 PM,9.0,-2.9,59,30.58,10.0,Calm,Calm,-,N/A,,Overcast,0,2013-01-24 21:53:00
4:53 PM,10.0,-2.0,58,30.53,10.0,NNE,3.5,-,N/A,,Overcast,30,2013-01-24 22:53:00
5:53 PM,12.0,-2.9,51,30.50,10.0,SE,6.9,-,N/A,,Partly Cloudy,130,2013-01-24 23:53:00
6:53 PM,12.0,-2.0,53,30.49,10.0,SE,8.1,-,N/A,,Overcast,130,2013-01-25 00:53:00
7:53 PM,12.0,-2.0,53,30.47,10.0,ESE,8.1,-,N/A,,Mostly Cloudy,120,2013-01-25 01:53:00
8:53 PM,12.9,-0.9,54,30.42,10.0,SE,8.1,-,N/A,,Mostly Cloudy,140,2013-01-25 02:53:00
9:53 PM,12.9,-0.0,56,30.39,10.0,SE,11.5,-,N/A,,Overcast,140,2013-01-25 03:53:00
10:53 PM,14.0,1.9,59,30.37,10.0,SSE,10.4,-,N/A,,Overcast,150,2013-01-25 04:53:00
11:53 PM,14.0,1.9,59,30.35,10.0,SE,5.8,-,N/A,,Overcast,140,2013-01-25 05:53:00